Auburn, California
Current Conditions -  °F | °C
As of 10:35 AM on Monday 20 Oct 2014 (Local Time) from KAUN Reporting Station
Clear Clear  
Wind Chill: 63°   Ceiling: Unl
Heat Index: 63°   Visibility: 10mi
Dew Point: 54°   Wind: 8mph
Humidity: 72%   Direction: 190°S
Pressure: 29.97"   Gusts: NA
Location:  38.9°N, 121.07°W
Report Text: KAUN 201735Z AUTO 19007KT 10SM CLR 17/12 A2997 RMK AO1
Loading
Personal Weather Stations






























Interactive Weather Map
Tropical Storm Tracking
New forecast layout! Learn more

10-Day Weather Forecast

Advertisements
Track Severe Weather on mobile